Retalhuleu Airport
MGRT : now visible

Airfield :











YOU CAN JOIN US ON...

 
LOGIN :

Register | Disclaimer

   EN    FR    IT 

 









Legend :    VFR   Marginal VFR   IFR   Intensive IFR   Very Intensive IFR
Visi :
Ceiling :
>= 8 km
>= 3000ft
5 to 8 km
1000 to 3000 ft
1500m to 5 km
500 to 1000 ft
800 to 1500m
200 to 500 ft
< 800m
< 200 ft
Symbols :   Thunderstorms  Fog  Heavy snow  Heavy precipitations  Wind > 20 kt







- Airport Elevation : 656 ft
- IATA code : RER


MGRT - Retalhuleu

CURRENT METAR :
  • 210000Z 03004KT 9999 SCT016 OVC070 25/25 Q1012 A2988 PCPN N/NE/E VOL. STA. MARIA Y SANTIAGUITO EN ACTIVIDAD

EXPIRED METARs :
  • 202300Z 18004KT 6000 TSRA SCT016 FEW020CB OVC070 25/24 Q1011 A2985 CB/TS/SE /NW VOL. STA. MARIA Y SANTIAGUITO EN ACTIVIDAD
  • 202200Z 22006KT 8000 -TSRA SCT016 FEW020CB BKN070 25/24 Q1011 A2985 CB/TS SW VOL. STA. MARIA Y SANTIAGUITO EN ACTIVIDAD

TAF N/A
MHTG FIR / North America



MET'MAP, your aeronautical weather chart ! - Copyright ORBIFLY December 2007 - Disclaimer

ORBIFLY MET'MAP TEAM :

Programming & Development : Alexandra Zaïnal
Concept & Development : Baudouin d'Aumeries
Co-Development & Prog : Marc-Olivier Méhu
Technical & hardware support : Manuel Goepfert

Contact : metmap@orbifly.com




SOURCES & CREDITS :

   NOAA       Earth
Advisory